sensor_id;sensor_type;location;lat;lon;timestamp;pressure;altitude;pressure_sealevel;temperature;humidity
67029;BME280;53934;52.142;11.738;2022-10-03T00:00:08;101494.13;;;13.05;82.73
67029;BME280;53934;52.142;11.738;2022-10-03T00:02:43;101492.50;;;13.03;83.07
67029;BME280;53934;52.142;11.738;2022-10-03T00:05:21;101491.22;;;12.76;84.23
67029;BME280;53934;52.142;11.738;2022-10-03T00:07:59;101493.56;;;12.99;83.42
67029;BME280;53934;52.142;11.738;2022-10-03T00:10:31;101497.50;;;13.26;82.12
67029;BME280;53934;52.142;11.738;2022-10-03T00:13:10;101499.28;;;13.26;81.72
67029;BME280;53934;52.142;11.738;2022-10-03T00:15:43;101501.22;;;13.22;82.41
67029;BME280;53934;52.142;11.738;2022-10-03T00:18:16;101507.13;;;12.91;83.33
67029;BME280;53934;52.142;11.738;2022-10-03T00:21:01;101506.22;;;13.09;82.60
67029;BME280;53934;52.142;11.738;2022-10-03T00:23:34;101498.97;;;13.14;82.69
67029;BME280;53934;52.142;11.738;2022-10-03T00:26:04;101502.72;;;12.92;83.63
67029;BME280;53934;52.142;11.738;2022-10-03T00:28:50;101505.34;;;12.92;83.53
67029;BME280;53934;52.142;11.738;2022-10-03T00:31:21;101509.44;;;12.97;83.12
67029;BME280;53934;52.142;11.738;2022-10-03T00:33:53;101508.56;;;13.33;81.53
67029;BME280;53934;52.142;11.738;2022-10-03T00:36:29;101519.69;;;13.38;80.75
67029;BME280;53934;52.142;11.738;2022-10-03T00:39:12;101517.56;;;13.29;81.33
67029;BME280;53934;52.142;11.738;2022-10-03T00:47:20;101526.56;;;13.06;82.51
67029;BME280;53934;52.142;11.738;2022-10-03T00:49:58;101521.09;;;13.28;80.64
67029;BME280;53934;52.142;11.738;2022-10-03T00:52:41;101530.03;;;13.25;81.51
67029;BME280;53934;52.142;11.738;2022-10-03T00:55:14;101529.03;;;13.09;81.83
67029;BME280;53934;52.142;11.738;2022-10-03T00:57:48;101536.34;;;13.04;82.40
67029;BME280;53934;52.142;11.738;2022-10-03T01:00:21;101528.81;;;12.96;82.32
67029;BME280;53934;52.142;11.738;2022-10-03T01:02:53;101537.47;;;12.98;82.90
67029;BME280;53934;52.142;11.738;2022-10-03T01:05:29;101538.31;;;12.82;83.12
67029;BME280;53934;52.142;11.738;2022-10-03T01:10:51;101543.28;;;12.69;84.48
67029;BME280;53934;52.142;11.738;2022-10-03T01:13:25;101542.63;;;12.83;84.10
67029;BME280;53934;52.142;11.738;2022-10-03T01:15:59;101554.38;;;12.76;84.48
67029;BME280;53934;52.142;11.738;2022-10-03T01:18:34;101560.44;;;12.78;84.40
67029;BME280;53934;52.142;11.738;2022-10-03T01:21:07;101551.13;;;12.71;84.86
67029;BME280;53934;52.142;11.738;2022-10-03T01:23:45;101564.09;;;12.92;83.49
67029;BME280;53934;52.142;11.738;2022-10-03T01:26:29;101561.53;;;12.91;84.21
67029;BME280;53934;52.142;11.738;2022-10-03T01:29:02;101559.75;;;12.91;84.21
67029;BME280;53934;52.142;11.738;2022-10-03T01:31:50;101560.94;;;13.22;81.47
67029;BME280;53934;52.142;11.738;2022-10-03T01:34:21;101564.59;;;13.00;82.92
67029;BME280;53934;52.142;11.738;2022-10-03T01:36:51;101561.53;;;13.09;82.90
67029;BME280;53934;52.142;11.738;2022-10-03T01:39:21;101566.47;;;12.80;83.85
67029;BME280;53934;52.142;11.738;2022-10-03T01:41:51;101571.81;;;12.78;84.43
67029;BME280;53934;52.142;11.738;2022-10-03T01:44:25;101569.06;;;12.98;82.91
67029;BME280;53934;52.142;11.738;2022-10-03T01:46:57;101576.59;;;13.06;83.12
67029;BME280;53934;52.142;11.738;2022-10-03T01:49:33;101570.78;;;13.35;81.50
67029;BME280;53934;52.142;11.738;2022-10-03T01:52:02;101580.69;;;13.30;82.41
67029;BME280;53934;52.142;11.738;2022-10-03T01:54:33;101576.53;;;13.07;83.72
67029;BME280;53934;52.142;11.738;2022-10-03T01:57:07;101585.72;;;13.18;83.42
67029;BME280;53934;52.142;11.738;2022-10-03T01:59:38;101579.66;;;13.15;83.42
67029;BME280;53934;52.142;11.738;2022-10-03T02:02:08;101587.47;;;13.17;84.13
67029;BME280;53934;52.142;11.738;2022-10-03T02:04:39;101586.19;;;13.07;84.52
67029;BME280;53934;52.142;11.738;2022-10-03T02:07:11;101588.38;;;12.80;85.57
67029;BME280;53934;52.142;11.738;2022-10-03T02:09:45;101591.41;;;12.90;85.51
67029;BME280;53934;52.142;11.738;2022-10-03T02:12:15;101587.34;;;13.01;85.36
67029;BME280;53934;52.142;11.738;2022-10-03T02:14:52;101584.78;;;13.00;85.21
67029;BME280;53934;52.142;11.738;2022-10-03T02:17:23;101592.16;;;13.29;83.61
67029;BME280;53934;52.142;11.738;2022-10-03T02:19:56;101591.78;;;13.37;83.06
67029;BME280;53934;52.142;11.738;2022-10-03T02:22:28;101590.97;;;13.35;83.29
67029;BME280;53934;52.142;11.738;2022-10-03T02:24:59;101596.66;;;13.44;83.02
67029;BME280;53934;52.142;11.738;2022-10-03T02:30:18;101600.22;;;13.26;83.19
67029;BME280;53934;52.142;11.738;2022-10-03T02:33:07;101596.34;;;13.50;81.82
67029;BME280;53934;52.142;11.738;2022-10-03T02:38:26;101603.22;;;13.00;84.17
67029;BME280;53934;52.142;11.738;2022-10-03T02:41:07;101603.41;;;13.33;82.73
67029;BME280;53934;52.142;11.738;2022-10-03T02:52:19;101613.38;;;13.07;83.73
67029;BME280;53934;52.142;11.738;2022-10-03T02:54:55;101622.16;;;13.08;84.05
67029;BME280;53934;52.142;11.738;2022-10-03T02:57:42;101619.19;;;12.78;84.69
67029;BME280;53934;52.142;11.738;2022-10-03T03:00:13;101620.72;;;13.01;84.06
67029;BME280;53934;52.142;11.738;2022-10-03T03:08:16;101625.94;;;12.84;85.32
67029;BME280;53934;52.142;11.738;2022-10-03T03:10:58;101626.78;;;13.03;84.17
67029;BME280;53934;52.142;11.738;2022-10-03T03:13:44;101632.91;;;12.85;85.18
67029;BME280;53934;52.142;11.738;2022-10-03T03:19:10;101633.66;;;12.87;85.80
67029;BME280;53934;52.142;11.738;2022-10-03T03:21:43;101633.31;;;13.13;84.79
67029;BME280;53934;52.142;11.738;2022-10-03T03:24:19;101630.25;;;13.22;84.30
67029;BME280;53934;52.142;11.738;2022-10-03T03:26:54;101630.63;;;13.14;84.03
67029;BME280;53934;52.142;11.738;2022-10-03T03:29:28;101629.41;;;13.22;84.11
67029;BME280;53934;52.142;11.738;2022-10-03T03:31:59;101630.13;;;12.88;85.40
67029;BME280;53934;52.142;11.738;2022-10-03T03:34:28;101627.31;;;13.28;83.45
67029;BME280;53934;52.142;11.738;2022-10-03T03:36:58;101631.50;;;13.32;82.56
67029;BME280;53934;52.142;11.738;2022-10-03T03:39:45;101638.50;;;13.33;82.35
67029;BME280;53934;52.142;11.738;2022-10-03T03:42:32;101636.09;;;13.10;83.38
67029;BME280;53934;52.142;11.738;2022-10-03T03:45:03;101640.16;;;13.17;82.99
67029;BME280;53934;52.142;11.738;2022-10-03T03:47:43;101632.00;;;12.86;84.60
67029;BME280;53934;52.142;11.738;2022-10-03T03:50:18;101637.16;;;13.06;84.36
67029;BME280;53934;52.142;11.738;2022-10-03T03:52:52;101638.56;;;12.94;84.41
67029;BME280;53934;52.142;11.738;2022-10-03T03:55:28;101641.41;;;12.90;84.94
67029;BME280;53934;52.142;11.738;2022-10-03T03:58:02;101645.78;;;13.09;84.96
67029;BME280;53934;52.142;11.738;2022-10-03T04:00:32;101657.00;;;12.76;86.37
67029;BME280;53934;52.142;11.738;2022-10-03T04:03:09;101662.47;;;12.90;86.53
67029;BME280;53934;52.142;11.738;2022-10-03T04:05:45;101647.81;;;13.03;86.06
67029;BME280;53934;52.142;11.738;2022-10-03T04:08:27;101651.75;;;13.13;85.72
67029;BME280;53934;52.142;11.738;2022-10-03T04:11:04;101649.66;;;13.01;86.58
67029;BME280;53934;52.142;11.738;2022-10-03T04:13:40;101666.16;;;13.04;86.40
67029;BME280;53934;52.142;11.738;2022-10-03T04:16:20;101654.72;;;13.05;85.96
67029;BME280;53934;52.142;11.738;2022-10-03T04:19:10;101660.34;;;13.35;83.95
67029;BME280;53934;52.142;11.738;2022-10-03T04:21:43;101655.06;;;13.35;83.59
67029;BME280;53934;52.142;11.738;2022-10-03T04:24:18;101667.28;;;13.19;83.74
67029;BME280;53934;52.142;11.738;2022-10-03T04:26:55;101657.13;;;13.11;83.88
67029;BME280;53934;52.142;11.738;2022-10-03T04:29:35;101669.47;;;13.28;83.62
67029;BME280;53934;52.142;11.738;2022-10-03T04:32:08;101661.94;;;13.21;83.44
67029;BME280;53934;52.142;11.738;2022-10-03T04:34:43;101660.09;;;12.85;86.53
67029;BME280;53934;52.142;11.738;2022-10-03T04:37:18;101660.06;;;13.04;86.22
67029;BME280;53934;52.142;11.738;2022-10-03T04:39:50;101662.78;;;12.84;86.90
67029;BME280;53934;52.142;11.738;2022-10-03T04:42:22;101659.63;;;12.76;87.30
67029;BME280;53934;52.142;11.738;2022-10-03T04:47:39;101655.22;;;12.95;86.55
67029;BME280;53934;52.142;11.738;2022-10-03T04:50:12;101650.41;;;12.86;86.92
67029;BME280;53934;52.142;11.738;2022-10-03T04:52:46;101653.81;;;12.88;87.04
67029;BME280;53934;52.142;11.738;2022-10-03T04:55:16;101662.63;;;13.24;84.95
67029;BME280;53934;52.142;11.738;2022-10-03T04:57:49;101658.59;;;13.17;84.82
67029;BME280;53934;52.142;11.738;2022-10-03T05:00:20;101663.44;;;13.26;84.14
67029;BME280;53934;52.142;11.738;2022-10-03T05:02:49;101667.47;;;12.96;84.74
67029;BME280;53934;52.142;11.738;2022-10-03T05:08:11;101682.75;;;12.88;84.82
67029;BME280;53934;52.142;11.738;2022-10-03T05:10:43;101682.22;;;13.19;84.15
67029;BME280;53934;52.142;11.738;2022-10-03T05:13:15;101690.53;;;13.28;83.24
67029;BME280;53934;52.142;11.738;2022-10-03T05:15:49;101702.94;;;13.26;83.78
67029;BME280;53934;52.142;11.738;2022-10-03T05:18:16;101699.25;;;13.11;84.93
67029;BME280;53934;52.142;11.738;2022-10-03T05:20:46;101698.72;;;13.03;84.89
67029;BME280;53934;52.142;11.738;2022-10-03T05:23:19;101700.41;;;13.23;84.16
67029;BME280;53934;52.142;11.738;2022-10-03T05:25:52;101703.19;;;13.39;84.16
67029;BME280;53934;52.142;11.738;2022-10-03T05:28:28;101708.88;;;12.92;86.31
67029;BME280;53934;52.142;11.738;2022-10-03T05:31:00;101700.72;;;13.17;85.57
67029;BME280;53934;52.142;11.738;2022-10-03T05:33:32;101695.06;;;12.87;86.68
67029;BME280;53934;52.142;11.738;2022-10-03T05:36:03;101700.63;;;13.00;86.32
67029;BME280;53934;52.142;11.738;2022-10-03T05:38:39;101708.03;;;12.92;86.66
67029;BME280;53934;52.142;11.738;2022-10-03T05:41:17;101697.56;;;12.90;86.63
67029;BME280;53934;52.142;11.738;2022-10-03T05:43:50;101701.38;;;13.22;84.88
67029;BME280;53934;52.142;11.738;2022-10-03T05:46:28;101708.63;;;13.17;84.37
67029;BME280;53934;52.142;11.738;2022-10-03T05:49:01;101707.19;;;13.29;83.66
67029;BME280;53934;52.142;11.738;2022-10-03T05:51:42;101711.31;;;12.97;84.46
67029;BME280;53934;52.142;11.738;2022-10-03T05:54:22;101723.34;;;13.21;83.79
67029;BME280;53934;52.142;11.738;2022-10-03T05:56:59;101717.56;;;12.94;84.67
67029;BME280;53934;52.142;11.738;2022-10-03T05:59:38;101725.09;;;13.02;84.79
67029;BME280;53934;52.142;11.738;2022-10-03T06:05:00;101740.16;;;13.19;84.23
67029;BME280;53934;52.142;11.738;2022-10-03T06:07:32;101735.88;;;13.35;83.47
67029;BME280;53934;52.142;11.738;2022-10-03T06:12:48;101749.03;;;13.53;83.32
67029;BME280;53934;52.142;11.738;2022-10-03T06:15:27;101760.22;;;13.40;83.45
67029;BME280;53934;52.142;11.738;2022-10-03T06:18:01;101765.50;;;13.40;83.17
67029;BME280;53934;52.142;11.738;2022-10-03T06:20:42;101763.22;;;13.32;83.70
67029;BME280;53934;52.142;11.738;2022-10-03T06:29:10;101766.38;;;13.76;82.58
67029;BME280;53934;52.142;11.738;2022-10-03T06:34:45;101758.06;;;14.37;78.05
67029;BME280;53934;52.142;11.738;2022-10-03T06:37:20;101759.53;;;14.59;77.38
67029;BME280;53934;52.142;11.738;2022-10-03T06:45:29;101785.81;;;15.89;72.32
67029;BME280;53934;52.142;11.738;2022-10-03T06:50:55;101781.75;;;15.68;72.18
67029;BME280;53934;52.142;11.738;2022-10-03T06:53:33;101777.03;;;15.42;73.01
67029;BME280;53934;52.142;11.738;2022-10-03T06:59:01;101781.09;;;15.65;73.39
67029;BME280;53934;52.142;11.738;2022-10-03T07:01:41;101789.88;;;15.49;73.27
67029;BME280;53934;52.142;11.738;2022-10-03T07:04:19;101779.91;;;15.06;74.65
67029;BME280;53934;52.142;11.738;2022-10-03T07:06:57;101781.06;;;15.33;75.14
67029;BME280;53934;52.142;11.738;2022-10-03T07:09:51;101792.59;;;14.99;74.74
67029;BME280;53934;52.142;11.738;2022-10-03T07:12:32;101794.97;;;15.37;74.35
67029;BME280;53934;52.142;11.738;2022-10-03T07:15:15;101803.13;;;15.32;74.53
67029;BME280;53934;52.142;11.738;2022-10-03T07:17:52;101803.22;;;14.98;75.10
67029;BME280;53934;52.142;11.738;2022-10-03T07:20:29;101800.94;;;14.75;76.88
67029;BME280;53934;52.142;11.738;2022-10-03T07:23:24;101800.47;;;15.17;75.56
67029;BME280;53934;52.142;11.738;2022-10-03T07:31:32;101812.50;;;16.00;72.05
67029;BME280;53934;52.142;11.738;2022-10-03T07:34:11;101811.91;;;16.41;70.71
67029;BME280;53934;52.142;11.738;2022-10-03T07:36:56;101806.53;;;16.72;68.98
67029;BME280;53934;52.142;11.738;2022-10-03T07:40:14;101810.59;;;17.34;68.41
67029;BME280;53934;52.142;11.738;2022-10-03T07:42:51;101818.06;;;17.97;67.08
67029;BME280;53934;52.142;11.738;2022-10-03T07:45:27;101822.44;;;17.57;67.03
67029;BME280;53934;52.142;11.738;2022-10-03T07:48:04;101825.41;;;17.10;66.73
67029;BME280;53934;52.142;11.738;2022-10-03T07:50:47;101824.25;;;17.14;68.12
67029;BME280;53934;52.142;11.738;2022-10-03T07:53:19;101829.25;;;16.90;68.64
67029;BME280;53934;52.142;11.738;2022-10-03T07:55:53;101833.59;;;16.77;68.58
67029;BME280;53934;52.142;11.738;2022-10-03T07:58:32;101842.97;;;16.97;68.47
67029;BME280;53934;52.142;11.738;2022-10-03T08:01:05;101842.44;;;17.06;68.46
67029;BME280;53934;52.142;11.738;2022-10-03T08:03:47;101843.69;;;16.71;67.95
67029;BME280;53934;52.142;11.738;2022-10-03T08:06:19;101857.41;;;16.47;70.52
67029;BME280;53934;52.142;11.738;2022-10-03T08:08:53;101846.44;;;16.24;69.92
67029;BME280;53934;52.142;11.738;2022-10-03T08:14:14;101847.63;;;17.36;69.24
67029;BME280;53934;52.142;11.738;2022-10-03T08:17:01;101854.03;;;16.89;66.62
67029;BME280;53934;52.142;11.738;2022-10-03T08:19:35;101844.22;;;16.32;69.84
67029;BME280;53934;52.142;11.738;2022-10-03T08:22:09;101845.78;;;16.66;70.41
67029;BME280;53934;52.142;11.738;2022-10-03T08:24:49;101836.75;;;17.12;68.02
67029;BME280;53934;52.142;11.738;2022-10-03T08:27:25;101840.59;;;16.92;66.79
67029;BME280;53934;52.142;11.738;2022-10-03T08:35:51;101859.16;;;18.58;63.79
67029;BME280;53934;52.142;11.738;2022-10-03T08:41:43;101852.97;;;19.71;60.40
67029;BME280;53934;52.142;11.738;2022-10-03T08:44:41;101857.50;;;19.32;59.74
67029;BME280;53934;52.142;11.738;2022-10-03T08:47:21;101851.94;;;20.21;59.35
67029;BME280;53934;52.142;11.738;2022-10-03T08:50:08;101852.50;;;20.72;56.31
67029;BME280;53934;52.142;11.738;2022-10-03T08:53:04;101858.91;;;21.15;56.23
67029;BME280;53934;52.142;11.738;2022-10-03T08:55:46;101853.94;;;21.22;56.41
67029;BME280;53934;52.142;11.738;2022-10-03T08:58:16;101853.56;;;21.60;55.24
67029;BME280;53934;52.142;11.738;2022-10-03T09:00:53;101851.59;;;21.62;53.22
67029;BME280;53934;52.142;11.738;2022-10-03T09:03:38;101849.56;;;21.54;52.91
67029;BME280;53934;52.142;11.738;2022-10-03T09:09:04;101856.22;;;21.49;52.85
67029;BME280;53934;52.142;11.738;2022-10-03T09:11:39;101860.75;;;22.13;51.26
67029;BME280;53934;52.142;11.738;2022-10-03T09:17:03;101864.09;;;21.72;52.64
67029;BME280;53934;52.142;11.738;2022-10-03T09:19:36;101857.28;;;22.33;53.02
67029;BME280;53934;52.142;11.738;2022-10-03T09:22:22;101858.53;;;22.18;50.70
67029;BME280;53934;52.142;11.738;2022-10-03T09:27:50;101869.34;;;20.72;53.12
67029;BME280;53934;52.142;11.738;2022-10-03T09:30:21;101872.50;;;19.95;55.52
67029;BME280;53934;52.142;11.738;2022-10-03T09:38:31;101857.88;;;20.24;55.18
67029;BME280;53934;52.142;11.738;2022-10-03T09:41:06;101846.50;;;21.59;55.47
67029;BME280;53934;52.142;11.738;2022-10-03T09:43:47;101853.88;;;22.31;50.50
67029;BME280;53934;52.142;11.738;2022-10-03T09:46:31;101847.94;;;22.80;50.85
67029;BME280;53934;52.142;11.738;2022-10-03T09:51:43;101865.94;;;21.72;51.51
67029;BME280;53934;52.142;11.738;2022-10-03T09:54:21;101857.69;;;21.42;52.35
67029;BME280;53934;52.142;11.738;2022-10-03T09:56:54;101857.28;;;21.02;51.79
67029;BME280;53934;52.142;11.738;2022-10-03T09:59:35;101869.63;;;20.46;55.58
67029;BME280;53934;52.142;11.738;2022-10-03T10:02:10;101871.28;;;19.75;55.95
67029;BME280;53934;52.142;11.738;2022-10-03T10:04:46;101865.41;;;19.83;57.19
67029;BME280;53934;52.142;11.738;2022-10-03T10:10:13;101878.31;;;19.64;56.54
67029;BME280;53934;52.142;11.738;2022-10-03T10:12:54;101869.97;;;19.07;57.18
67029;BME280;53934;52.142;11.738;2022-10-03T10:23:51;101860.91;;;20.55;58.26
67029;BME280;53934;52.142;11.738;2022-10-03T10:32:06;101856.94;;;19.53;56.77
67029;BME280;53934;52.142;11.738;2022-10-03T10:43:19;101859.25;;;20.54;54.96
67029;BME280;53934;52.142;11.738;2022-10-03T10:49:00;101854.75;;;20.07;54.96
67029;BME280;53934;52.142;11.738;2022-10-03T10:54:34;101852.16;;;19.58;56.56
67029;BME280;53934;52.142;11.738;2022-10-03T10:57:08;101854.19;;;19.90;56.78
67029;BME280;53934;52.142;11.738;2022-10-03T10:59:53;101844.91;;;19.60;55.77
67029;BME280;53934;52.142;11.738;2022-10-03T11:10:46;101855.66;;;18.57;58.94
67029;BME280;53934;52.142;11.738;2022-10-03T11:19:05;101854.50;;;18.08;64.27
67029;BME280;53934;52.142;11.738;2022-10-03T11:21:54;101851.06;;;18.59;63.89
67029;BME280;53934;52.142;11.738;2022-10-03T11:24:39;101846.44;;;19.13;65.14
67029;BME280;53934;52.142;11.738;2022-10-03T11:27:30;101851.31;;;19.32;64.93
67029;BME280;53934;52.142;11.738;2022-10-03T11:30:15;101846.00;;;19.81;59.78
67029;BME280;53934;52.142;11.738;2022-10-03T11:35:52;101844.97;;;19.83;57.57
67029;BME280;53934;52.142;11.738;2022-10-03T11:38:25;101836.69;;;19.99;58.44
67029;BME280;53934;52.142;11.738;2022-10-03T11:40:59;101849.03;;;20.24;56.77
67029;BME280;53934;52.142;11.738;2022-10-03T11:46:18;101844.22;;;20.29;54.44
67029;BME280;53934;52.142;11.738;2022-10-03T11:48:47;101845.38;;;20.14;55.23
67029;BME280;53934;52.142;11.738;2022-10-03T11:51:21;101853.50;;;19.76;56.09
67029;BME280;53934;52.142;11.738;2022-10-03T11:53:52;101850.59;;;19.42;56.49
67029;BME280;53934;52.142;11.738;2022-10-03T11:56:28;101848.44;;;19.48;58.43
67029;BME280;53934;52.142;11.738;2022-10-03T11:59:00;101836.84;;;19.36;56.89
67029;BME280;53934;52.142;11.738;2022-10-03T12:01:33;101835.25;;;19.46;56.02
67029;BME280;53934;52.142;11.738;2022-10-03T12:04:07;101831.69;;;19.71;57.83
67029;BME280;53934;52.142;11.738;2022-10-03T12:06:43;101834.28;;;20.07;57.73
67029;BME280;53934;52.142;11.738;2022-10-03T12:09:29;101820.16;;;20.76;58.04
67029;BME280;53934;52.142;11.738;2022-10-03T12:11:59;101820.28;;;20.75;54.37
67029;BME280;53934;52.142;11.738;2022-10-03T12:14:29;101818.84;;;20.82;54.53
67029;BME280;53934;52.142;11.738;2022-10-03T12:17:04;101815.63;;;20.66;54.17
67029;BME280;53934;52.142;11.738;2022-10-03T12:19:33;101818.09;;;20.69;53.52
67029;BME280;53934;52.142;11.738;2022-10-03T12:22:05;101820.03;;;20.78;52.10
67029;BME280;53934;52.142;11.738;2022-10-03T12:24:34;101798.75;;;21.22;52.85
67029;BME280;53934;52.142;11.738;2022-10-03T12:27:04;101807.31;;;21.70;53.81
67029;BME280;53934;52.142;11.738;2022-10-03T12:29:32;101807.91;;;21.74;51.56
67029;BME280;53934;52.142;11.738;2022-10-03T12:32:03;101805.19;;;21.85;50.57
67029;BME280;53934;52.142;11.738;2022-10-03T12:34:38;101791.94;;;22.06;50.61
67029;BME280;53934;52.142;11.738;2022-10-03T12:37:10;101797.44;;;21.93;49.27
67029;BME280;53934;52.142;11.738;2022-10-03T12:39:45;101799.97;;;21.29;49.88
67029;BME280;53934;52.142;11.738;2022-10-03T12:42:20;101799.47;;;20.80;50.86
67029;BME280;53934;52.142;11.738;2022-10-03T12:44:51;101799.69;;;20.88;52.08
67029;BME280;53934;52.142;11.738;2022-10-03T12:47:26;101799.47;;;21.02;51.68
67029;BME280;53934;52.142;11.738;2022-10-03T12:49:55;101792.22;;;21.38;51.09
67029;BME280;53934;52.142;11.738;2022-10-03T12:52:25;101800.22;;;21.26;53.13
67029;BME280;53934;52.142;11.738;2022-10-03T12:54:57;101799.22;;;21.05;52.42
67029;BME280;53934;52.142;11.738;2022-10-03T12:57:43;101796.66;;;20.93;52.11
67029;BME280;53934;52.142;11.738;2022-10-03T13:00:13;101800.69;;;20.98;52.11
67029;BME280;53934;52.142;11.738;2022-10-03T13:02:42;101806.34;;;20.36;51.91
67029;BME280;53934;52.142;11.738;2022-10-03T13:05:23;101818.56;;;19.80;54.07
67029;BME280;53934;52.142;11.738;2022-10-03T13:07:51;101827.41;;;19.19;57.24
67029;BME280;53934;52.142;11.738;2022-10-03T13:10:22;101831.56;;;18.73;60.16
67029;BME280;53934;52.142;11.738;2022-10-03T13:12:52;101828.31;;;18.16;62.91
67029;BME280;53934;52.142;11.738;2022-10-03T13:15:32;101829.59;;;18.10;63.90
67029;BME280;53934;52.142;11.738;2022-10-03T13:18:06;101824.31;;;17.69;64.22
67029;BME280;53934;52.142;11.738;2022-10-03T13:20:35;101821.44;;;18.26;63.25
67029;BME280;53934;52.142;11.738;2022-10-03T13:23:05;101822.94;;;18.69;63.33
67029;BME280;53934;52.142;11.738;2022-10-03T13:25:37;101816.03;;;19.17;60.61
67029;BME280;53934;52.142;11.738;2022-10-03T13:28:08;101817.59;;;19.32;60.55
67029;BME280;53934;52.142;11.738;2022-10-03T13:30:40;101813.66;;;19.25;60.90
67029;BME280;53934;52.142;11.738;2022-10-03T13:33:11;101817.19;;;19.75;60.34
67029;BME280;53934;52.142;11.738;2022-10-03T13:35:42;101809.72;;;19.80;58.29
67029;BME280;53934;52.142;11.738;2022-10-03T13:38:41;101816.22;;;20.00;57.04
67029;BME280;53934;52.142;11.738;2022-10-03T13:41:13;101819.94;;;19.73;58.18
67029;BME280;53934;52.142;11.738;2022-10-03T13:43:43;101810.78;;;19.54;59.05
67029;BME280;53934;52.142;11.738;2022-10-03T13:46:14;101807.16;;;19.55;59.22
67029;BME280;53934;52.142;11.738;2022-10-03T13:48:43;101804.81;;;19.50;59.58
67029;BME280;53934;52.142;11.738;2022-10-03T13:51:17;101807.78;;;19.33;58.21
67029;BME280;53934;52.142;11.738;2022-10-03T13:53:55;101797.28;;;19.19;59.58
67029;BME280;53934;52.142;11.738;2022-10-03T13:56:30;101795.41;;;19.21;59.22
67029;BME280;53934;52.142;11.738;2022-10-03T13:59:00;101795.25;;;19.22;58.29
67029;BME280;53934;52.142;11.738;2022-10-03T14:01:32;101792.00;;;18.93;59.46
67029;BME280;53934;52.142;11.738;2022-10-03T14:04:08;101795.72;;;18.78;59.71
67029;BME280;53934;52.142;11.738;2022-10-03T14:06:42;101797.63;;;18.89;59.75
67029;BME280;53934;52.142;11.738;2022-10-03T14:09:25;101796.59;;;18.79;60.30
67029;BME280;53934;52.142;11.738;2022-10-03T14:11:57;101800.53;;;18.73;60.56
67029;BME280;53934;52.142;11.738;2022-10-03T14:14:33;101795.19;;;18.61;61.33
67029;BME280;53934;52.142;11.738;2022-10-03T14:17:04;101796.16;;;18.85;60.47
67029;BME280;53934;52.142;11.738;2022-10-03T14:19:36;101803.50;;;18.69;60.88
67029;BME280;53934;52.142;11.738;2022-10-03T14:22:08;101798.53;;;18.25;61.90
67029;BME280;53934;52.142;11.738;2022-10-03T14:24:46;101809.38;;;18.08;62.85
67029;BME280;53934;52.142;11.738;2022-10-03T14:27:21;101819.69;;;17.59;67.06
67029;BME280;53934;52.142;11.738;2022-10-03T14:29:55;101817.25;;;17.13;70.46
67029;BME280;53934;52.142;11.738;2022-10-03T14:32:26;101811.94;;;17.13;70.63
67029;BME280;53934;52.142;11.738;2022-10-03T14:34:56;101813.25;;;17.20;71.58
67029;BME280;53934;52.142;11.738;2022-10-03T14:37:30;101809.09;;;17.16;72.06
67029;BME280;53934;52.142;11.738;2022-10-03T14:40:06;101813.13;;;17.50;73.20
67029;BME280;53934;52.142;11.738;2022-10-03T14:42:50;101809.44;;;17.67;71.60
67029;BME280;53934;52.142;11.738;2022-10-03T14:45:21;101808.97;;;17.60;71.20
67029;BME280;53934;52.142;11.738;2022-10-03T14:47:51;101812.88;;;17.40;71.42
67029;BME280;53934;52.142;11.738;2022-10-03T14:50:21;101842.09;;;16.68;75.42
67029;BME280;53934;52.142;11.738;2022-10-03T14:52:49;101834.91;;;16.40;79.33
67029;BME280;53934;52.142;11.738;2022-10-03T14:55:20;101829.41;;;16.43;80.45
67029;BME280;53934;52.142;11.738;2022-10-03T14:57:50;101827.34;;;16.48;81.41
67029;BME280;53934;52.142;11.738;2022-10-03T15:00:24;101822.53;;;16.85;81.71
67029;BME280;53934;52.142;11.738;2022-10-03T15:02:52;101821.31;;;16.90;81.58
67029;BME280;53934;52.142;11.738;2022-10-03T15:05:20;101818.75;;;17.17;79.62
67029;BME280;53934;52.142;11.738;2022-10-03T15:07:47;101813.16;;;17.08;79.58
67029;BME280;53934;52.142;11.738;2022-10-03T15:10:14;101807.13;;;17.06;80.43
67029;BME280;53934;52.142;11.738;2022-10-03T15:12:45;101809.28;;;17.13;79.94
67029;BME280;53934;52.142;11.738;2022-10-03T15:15:14;101807.50;;;16.99;78.74
67029;BME280;53934;52.142;11.738;2022-10-03T15:17:42;101807.59;;;17.40;76.93
67029;BME280;53934;52.142;11.738;2022-10-03T15:20:09;101797.72;;;17.42;77.36
67029;BME280;53934;52.142;11.738;2022-10-03T15:22:38;101807.91;;;17.48;76.78
67029;BME280;53934;52.142;11.738;2022-10-03T15:25:06;101797.44;;;17.19;77.42
67029;BME280;53934;52.142;11.738;2022-10-03T15:27:38;101802.56;;;17.36;75.79
67029;BME280;53934;52.142;11.738;2022-10-03T15:30:07;101802.28;;;17.40;77.12
67029;BME280;53934;52.142;11.738;2022-10-03T15:32:42;101802.72;;;17.61;75.47
67029;BME280;53934;52.142;11.738;2022-10-03T15:35:14;101802.75;;;17.33;75.59
67029;BME280;53934;52.142;11.738;2022-10-03T15:37:42;101803.81;;;17.16;76.88
67029;BME280;53934;52.142;11.738;2022-10-03T15:40:09;101810.50;;;17.08;76.01
67029;BME280;53934;52.142;11.738;2022-10-03T15:42:47;101802.47;;;17.09;76.11
67029;BME280;53934;52.142;11.738;2022-10-03T15:45:20;101803.41;;;17.36;73.99
67029;BME280;53934;52.142;11.738;2022-10-03T15:47:49;101804.75;;;17.29;74.17